Main page
METAR-TAF:

METAR-TAF

Airports :

Herat, Afghanistan

Herat International Airport

latitude: 34-13N, longitude: 062-13E, elevation: 964 m

Current weather observation

The report was made 3 hours and 43 minutes ago, at 16:55 UTC
Wind 1 kt from the South/Southwest
Temperature 20°C
Humidity 24%
Pressure 1018 hPa
Visibility 10 km or more
no clouds below 1500 m and no cumulonimbus

METAR: OAHR 301655Z 21001KT CAVOK 20/M01 Q1018 RMK BLU

Time: 01:08 (20:38 UTC)

Forecast

The report was made 3 hours and 36 minutes ago, at 17:02 UTC
Forecast valid from 30 at 18 UTC to 01 at 18 UTC
Wind 6 kt from the West
Visibility 10 km or more
no clouds below 1500 m and no cumulonimbus
Becoming
from 01 at 11 UTC to 01 at 13 UTC
Wind 10 kt from the North/Northeast

TAF: OAHR 301702Z 3018/0118 27006KT CAVOK BECMG 0111/0113 03010KT

Weather observations and forecasts of more than 4000 airports (METAR and TAF reports).

The available stations are represented by yellow and red dots on the map.

Hover mouse over dot to see the name of the station.

Then click to see weather observations and forecasts.

To change the map : click on the green buttons with a black cross to zoom in, on the green button with a dash to zoom out, or on the green arrows for adjacent maps.


METAR-TAF: